sensor_id;sensor_type;location;lat;lon;timestamp;P1;durP1;ratioP1;P2;durP2;ratioP2
12798;SDS011;19250;42.646;26.980;2023-11-19T00:00:35;0.10;;;0.10;;
12798;SDS011;19250;42.646;26.980;2023-11-19T00:03:02;0.10;;;0.10;;
12798;SDS011;19250;42.646;26.980;2023-11-19T00:05:30;0.10;;;0.10;;
12798;SDS011;19250;42.646;26.980;2023-11-19T00:07:58;0.10;;;0.10;;
12798;SDS011;19250;42.646;26.980;2023-11-19T00:10:27;0.10;;;0.10;;
12798;SDS011;19250;42.646;26.980;2023-11-19T00:12:55;0.10;;;0.10;;
12798;SDS011;19250;42.646;26.980;2023-11-19T00:15:23;0.10;;;0.10;;
12798;SDS011;19250;42.646;26.980;2023-11-19T00:17:52;0.10;;;0.10;;
12798;SDS011;19250;42.646;26.980;2023-11-19T00:20:19;0.10;;;0.10;;
12798;SDS011;19250;42.646;26.980;2023-11-19T00:22:48;0.10;;;0.10;;
12798;SDS011;19250;42.646;26.980;2023-11-19T00:25:17;0.10;;;0.10;;
12798;SDS011;19250;42.646;26.980;2023-11-19T00:27:45;0.10;;;0.10;;
12798;SDS011;19250;42.646;26.980;2023-11-19T00:30:13;0.10;;;0.10;;
12798;SDS011;19250;42.646;26.980;2023-11-19T00:32:42;0.10;;;0.10;;
12798;SDS011;19250;42.646;26.980;2023-11-19T00:35:12;0.10;;;0.10;;
12798;SDS011;19250;42.646;26.980;2023-11-19T00:37:40;0.10;;;0.10;;
12798;SDS011;19250;42.646;26.980;2023-11-19T00:40:12;0.10;;;0.10;;
12798;SDS011;19250;42.646;26.980;2023-11-19T00:42:41;0.10;;;0.10;;
12798;SDS011;19250;42.646;26.980;2023-11-19T00:45:08;0.10;;;0.10;;
12798;SDS011;19250;42.646;26.980;2023-11-19T00:47:38;0.10;;;0.10;;
12798;SDS011;19250;42.646;26.980;2023-11-19T00:50:06;0.10;;;0.10;;
12798;SDS011;19250;42.646;26.980;2023-11-19T00:52:37;0.10;;;0.10;;
12798;SDS011;19250;42.646;26.980;2023-11-19T00:55:05;0.10;;;0.10;;
12798;SDS011;19250;42.646;26.980;2023-11-19T00:57:33;0.20;;;0.20;;
12798;SDS011;19250;42.646;26.980;2023-11-19T01:00:00;0.10;;;0.10;;
12798;SDS011;19250;42.646;26.980;2023-11-19T01:02:34;0.10;;;0.10;;
12798;SDS011;19250;42.646;26.980;2023-11-19T01:05:01;0.10;;;0.10;;
12798;SDS011;19250;42.646;26.980;2023-11-19T01:07:29;0.10;;;0.10;;
12798;SDS011;19250;42.646;26.980;2023-11-19T01:09:58;0.10;;;0.10;;
12798;SDS011;19250;42.646;26.980;2023-11-19T01:12:25;0.10;;;0.10;;
12798;SDS011;19250;42.646;26.980;2023-11-19T01:14:52;0.10;;;0.10;;
12798;SDS011;19250;42.646;26.980;2023-11-19T01:17:20;0.10;;;0.10;;
12798;SDS011;19250;42.646;26.980;2023-11-19T01:19:47;0.10;;;0.10;;
12798;SDS011;19250;42.646;26.980;2023-11-19T01:22:15;0.10;;;0.10;;
12798;SDS011;19250;42.646;26.980;2023-11-19T01:24:44;0.10;;;0.10;;
12798;SDS011;19250;42.646;26.980;2023-11-19T01:27:13;2.23;;;1.53;;
12798;SDS011;19250;42.646;26.980;2023-11-19T01:29:40;2.00;;;1.80;;
12798;SDS011;19250;42.646;26.980;2023-11-19T01:32:08;2.20;;;1.70;;
12798;SDS011;19250;42.646;26.980;2023-11-19T01:34:35;1.80;;;1.43;;
12798;SDS011;19250;42.646;26.980;2023-11-19T01:37:03;1.80;;;1.53;;
12798;SDS011;19250;42.646;26.980;2023-11-19T01:39:30;2.70;;;1.73;;
12798;SDS011;19250;42.646;26.980;2023-11-19T01:41:58;2.10;;;1.40;;
12798;SDS011;19250;42.646;26.980;2023-11-19T01:44:25;2.50;;;1.57;;
12798;SDS011;19250;42.646;26.980;2023-11-19T01:46:53;2.20;;;1.40;;
12798;SDS011;19250;42.646;26.980;2023-11-19T01:49:20;1.50;;;1.37;;
12798;SDS011;19250;42.646;26.980;2023-11-19T01:51:48;2.17;;;1.67;;
12798;SDS011;19250;42.646;26.980;2023-11-19T01:54:16;1.87;;;1.73;;
12798;SDS011;19250;42.646;26.980;2023-11-19T01:56:44;1.80;;;1.27;;
12798;SDS011;19250;42.646;26.980;2023-11-19T01:59:11;1.57;;;1.20;;
12798;SDS011;19250;42.646;26.980;2023-11-19T02:01:41;2.33;;;1.27;;
12798;SDS011;19250;42.646;26.980;2023-11-19T02:04:09;2.00;;;1.50;;
12798;SDS011;19250;42.646;26.980;2023-11-19T02:06:40;1.97;;;1.53;;
12798;SDS011;19250;42.646;26.980;2023-11-19T02:09:08;1.37;;;1.23;;
12798;SDS011;19250;42.646;26.980;2023-11-19T02:11:36;1.97;;;1.50;;
12798;SDS011;19250;42.646;26.980;2023-11-19T02:14:05;1.90;;;1.07;;
12798;SDS011;19250;42.646;26.980;2023-11-19T02:16:32;1.73;;;1.37;;
12798;SDS011;19250;42.646;26.980;2023-11-19T02:19:01;2.00;;;1.77;;
12798;SDS011;19250;42.646;26.980;2023-11-19T02:21:29;1.60;;;1.33;;
12798;SDS011;19250;42.646;26.980;2023-11-19T02:23:56;1.90;;;1.67;;
12798;SDS011;19250;42.646;26.980;2023-11-19T02:26:25;1.53;;;1.00;;
12798;SDS011;19250;42.646;26.980;2023-11-19T02:29:01;1.93;;;1.47;;
12798;SDS011;19250;42.646;26.980;2023-11-19T02:31:29;2.20;;;1.60;;
12798;SDS011;19250;42.646;26.980;2023-11-19T02:33:56;1.30;;;1.03;;
12798;SDS011;19250;42.646;26.980;2023-11-19T02:36:25;1.53;;;1.20;;
12798;SDS011;19250;42.646;26.980;2023-11-19T02:38:53;2.00;;;1.53;;
12798;SDS011;19250;42.646;26.980;2023-11-19T02:41:20;1.70;;;1.60;;
12798;SDS011;19250;42.646;26.980;2023-11-19T02:43:47;2.23;;;1.80;;
12798;SDS011;19250;42.646;26.980;2023-11-19T02:46:16;1.67;;;1.53;;
12798;SDS011;19250;42.646;26.980;2023-11-19T02:48:44;2.70;;;2.00;;
12798;SDS011;19250;42.646;26.980;2023-11-19T02:51:12;2.80;;;2.07;;
12798;SDS011;19250;42.646;26.980;2023-11-19T02:53:39;1.87;;;1.63;;
12798;SDS011;19250;42.646;26.980;2023-11-19T02:56:09;2.07;;;1.80;;
12798;SDS011;19250;42.646;26.980;2023-11-19T02:58:45;2.90;;;1.60;;
12798;SDS011;19250;42.646;26.980;2023-11-19T03:01:14;2.20;;;1.93;;
12798;SDS011;19250;42.646;26.980;2023-11-19T03:03:54;2.50;;;2.10;;
12798;SDS011;19250;42.646;26.980;2023-11-19T03:06:23;2.87;;;1.90;;
12798;SDS011;19250;42.646;26.980;2023-11-19T03:08:51;3.77;;;2.00;;
12798;SDS011;19250;42.646;26.980;2023-11-19T03:11:18;2.67;;;2.20;;
12798;SDS011;19250;42.646;26.980;2023-11-19T03:13:45;2.20;;;1.80;;
12798;SDS011;19250;42.646;26.980;2023-11-19T03:16:13;2.07;;;1.77;;
12798;SDS011;19250;42.646;26.980;2023-11-19T03:18:42;3.40;;;2.00;;
12798;SDS011;19250;42.646;26.980;2023-11-19T03:21:09;2.77;;;2.10;;
12798;SDS011;19250;42.646;26.980;2023-11-19T03:23:37;4.00;;;2.47;;
12798;SDS011;19250;42.646;26.980;2023-11-19T03:26:05;2.90;;;2.47;;
12798;SDS011;19250;42.646;26.980;2023-11-19T03:28:34;1.87;;;1.73;;
12798;SDS011;19250;42.646;26.980;2023-11-19T03:31:01;2.73;;;2.23;;
12798;SDS011;19250;42.646;26.980;2023-11-19T03:33:33;2.77;;;2.00;;
12798;SDS011;19250;42.646;26.980;2023-11-19T03:36:02;3.37;;;2.50;;
12798;SDS011;19250;42.646;26.980;2023-11-19T03:38:30;4.47;;;3.00;;
12798;SDS011;19250;42.646;26.980;2023-11-19T03:40:58;4.97;;;2.80;;
12798;SDS011;19250;42.646;26.980;2023-11-19T03:43:25;3.80;;;2.60;;
12798;SDS011;19250;42.646;26.980;2023-11-19T03:45:52;3.37;;;2.87;;
12798;SDS011;19250;42.646;26.980;2023-11-19T03:48:20;4.77;;;3.70;;
12798;SDS011;19250;42.646;26.980;2023-11-19T03:50:48;4.07;;;2.83;;
12798;SDS011;19250;42.646;26.980;2023-11-19T03:53:16;3.87;;;2.93;;
12798;SDS011;19250;42.646;26.980;2023-11-19T03:55:44;4.53;;;3.60;;
12798;SDS011;19250;42.646;26.980;2023-11-19T03:58:12;5.20;;;3.70;;
12798;SDS011;19250;42.646;26.980;2023-11-19T04:00:39;4.63;;;3.40;;
12798;SDS011;19250;42.646;26.980;2023-11-19T04:03:07;4.50;;;3.70;;
12798;SDS011;19250;42.646;26.980;2023-11-19T04:05:34;5.37;;;3.90;;
12798;SDS011;19250;42.646;26.980;2023-11-19T04:08:02;3.73;;;2.90;;
12798;SDS011;19250;42.646;26.980;2023-11-19T04:10:31;4.50;;;3.70;;
12798;SDS011;19250;42.646;26.980;2023-11-19T04:12:58;7.30;;;2.60;;
12798;SDS011;19250;42.646;26.980;2023-11-19T04:15:26;5.30;;;3.97;;
12798;SDS011;19250;42.646;26.980;2023-11-19T04:17:54;6.00;;;4.50;;
12798;SDS011;19250;42.646;26.980;2023-11-19T04:20:21;5.27;;;4.33;;
12798;SDS011;19250;42.646;26.980;2023-11-19T04:22:49;5.03;;;4.23;;
12798;SDS011;19250;42.646;26.980;2023-11-19T04:25:19;6.47;;;4.70;;
12798;SDS011;19250;42.646;26.980;2023-11-19T04:27:49;5.60;;;4.17;;
12798;SDS011;19250;42.646;26.980;2023-11-19T04:30:16;6.20;;;4.50;;
12798;SDS011;19250;42.646;26.980;2023-11-19T04:32:43;6.47;;;4.87;;
12798;SDS011;19250;42.646;26.980;2023-11-19T04:35:11;7.37;;;3.97;;
12798;SDS011;19250;42.646;26.980;2023-11-19T04:37:38;8.60;;;5.53;;
12798;SDS011;19250;42.646;26.980;2023-11-19T04:40:06;6.77;;;4.83;;
12798;SDS011;19250;42.646;26.980;2023-11-19T04:42:34;7.90;;;5.40;;
12798;SDS011;19250;42.646;26.980;2023-11-19T04:45:03;7.90;;;5.27;;
12798;SDS011;19250;42.646;26.980;2023-11-19T04:47:32;5.07;;;3.83;;
12798;SDS011;19250;42.646;26.980;2023-11-19T04:49:59;9.30;;;6.53;;
12798;SDS011;19250;42.646;26.980;2023-11-19T04:52:27;7.50;;;4.77;;
12798;SDS011;19250;42.646;26.980;2023-11-19T04:54:54;6.73;;;4.97;;
12798;SDS011;19250;42.646;26.980;2023-11-19T04:57:22;5.47;;;4.87;;
12798;SDS011;19250;42.646;26.980;2023-11-19T04:59:49;6.63;;;4.67;;
12798;SDS011;19250;42.646;26.980;2023-11-19T05:02:18;5.67;;;3.93;;
12798;SDS011;19250;42.646;26.980;2023-11-19T05:04:45;5.10;;;3.70;;
12798;SDS011;19250;42.646;26.980;2023-11-19T05:07:14;5.63;;;4.70;;
12798;SDS011;19250;42.646;26.980;2023-11-19T05:09:41;20.47;;;11.27;;
12798;SDS011;19250;42.646;26.980;2023-11-19T05:12:09;5.50;;;4.73;;
12798;SDS011;19250;42.646;26.980;2023-11-19T05:14:37;6.37;;;5.03;;
12798;SDS011;19250;42.646;26.980;2023-11-19T05:17:05;9.83;;;5.77;;
12798;SDS011;19250;42.646;26.980;2023-11-19T05:19:34;7.20;;;5.27;;
12798;SDS011;19250;42.646;26.980;2023-11-19T05:22:02;7.13;;;4.87;;
12798;SDS011;19250;42.646;26.980;2023-11-19T05:24:30;9.00;;;5.80;;
12798;SDS011;19250;42.646;26.980;2023-11-19T05:26:59;8.67;;;5.00;;
12798;SDS011;19250;42.646;26.980;2023-11-19T05:29:27;6.03;;;4.60;;
12798;SDS011;19250;42.646;26.980;2023-11-19T05:31:55;11.23;;;6.00;;
12798;SDS011;19250;42.646;26.980;2023-11-19T05:34:22;8.57;;;5.97;;
12798;SDS011;19250;42.646;26.980;2023-11-19T05:36:51;9.03;;;6.60;;
12798;SDS011;19250;42.646;26.980;2023-11-19T05:39:19;9.67;;;6.53;;
12798;SDS011;19250;42.646;26.980;2023-11-19T05:41:47;12.87;;;9.10;;
12798;SDS011;19250;42.646;26.980;2023-11-19T05:44:14;21.10;;;14.53;;
12798;SDS011;19250;42.646;26.980;2023-11-19T05:46:42;17.20;;;13.20;;
12798;SDS011;19250;42.646;26.980;2023-11-19T05:49:09;20.97;;;15.53;;
12798;SDS011;19250;42.646;26.980;2023-11-19T05:51:38;13.60;;;10.47;;
12798;SDS011;19250;42.646;26.980;2023-11-19T05:54:07;12.73;;;9.43;;
12798;SDS011;19250;42.646;26.980;2023-11-19T05:56:36;10.77;;;6.77;;
12798;SDS011;19250;42.646;26.980;2023-11-19T05:59:03;8.37;;;6.57;;
12798;SDS011;19250;42.646;26.980;2023-11-19T06:01:32;8.87;;;6.63;;
12798;SDS011;19250;42.646;26.980;2023-11-19T06:04:01;9.13;;;6.97;;
12798;SDS011;19250;42.646;26.980;2023-11-19T06:06:28;11.37;;;8.27;;
12798;SDS011;19250;42.646;26.980;2023-11-19T06:08:56;20.33;;;12.47;;
12798;SDS011;19250;42.646;26.980;2023-11-19T06:11:25;12.47;;;8.77;;
12798;SDS011;19250;42.646;26.980;2023-11-19T06:13:52;13.60;;;9.60;;
12798;SDS011;19250;42.646;26.980;2023-11-19T06:16:20;15.00;;;9.87;;
12798;SDS011;19250;42.646;26.980;2023-11-19T06:18:47;12.53;;;8.57;;
12798;SDS011;19250;42.646;26.980;2023-11-19T06:21:15;13.27;;;8.53;;
12798;SDS011;19250;42.646;26.980;2023-11-19T06:23:42;18.27;;;11.13;;
12798;SDS011;19250;42.646;26.980;2023-11-19T06:26:09;10.30;;;7.50;;
12798;SDS011;19250;42.646;26.980;2023-11-19T06:28:38;9.63;;;8.23;;
12798;SDS011;19250;42.646;26.980;2023-11-19T06:31:06;10.13;;;8.07;;
12798;SDS011;19250;42.646;26.980;2023-11-19T06:33:33;11.37;;;8.30;;
12798;SDS011;19250;42.646;26.980;2023-11-19T06:36:01;11.87;;;8.23;;
12798;SDS011;19250;42.646;26.980;2023-11-19T06:38:28;13.70;;;10.00;;
12798;SDS011;19250;42.646;26.980;2023-11-19T06:40:55;13.17;;;9.47;;
12798;SDS011;19250;42.646;26.980;2023-11-19T06:43:23;15.10;;;9.93;;
12798;SDS011;19250;42.646;26.980;2023-11-19T06:45:53;18.10;;;11.50;;
12798;SDS011;19250;42.646;26.980;2023-11-19T06:48:20;21.40;;;11.30;;
12798;SDS011;19250;42.646;26.980;2023-11-19T06:50:47;22.77;;;14.03;;
12798;SDS011;19250;42.646;26.980;2023-11-19T06:53:15;19.13;;;12.67;;
12798;SDS011;19250;42.646;26.980;2023-11-19T06:55:42;23.93;;;14.20;;
12798;SDS011;19250;42.646;26.980;2023-11-19T06:58:09;15.97;;;10.77;;
12798;SDS011;19250;42.646;26.980;2023-11-19T07:00:37;22.87;;;14.20;;
12798;SDS011;19250;42.646;26.980;2023-11-19T07:03:06;21.40;;;13.33;;
12798;SDS011;19250;42.646;26.980;2023-11-19T07:05:35;17.80;;;12.53;;
12798;SDS011;19250;42.646;26.980;2023-11-19T07:08:04;19.27;;;12.67;;
12798;SDS011;19250;42.646;26.980;2023-11-19T07:10:33;19.97;;;12.87;;
12798;SDS011;19250;42.646;26.980;2023-11-19T07:13:01;14.80;;;10.13;;
12798;SDS011;19250;42.646;26.980;2023-11-19T07:15:29;16.50;;;10.90;;
12798;SDS011;19250;42.646;26.980;2023-11-19T07:17:57;14.23;;;9.87;;
12798;SDS011;19250;42.646;26.980;2023-11-19T07:20:26;16.20;;;10.70;;
12798;SDS011;19250;42.646;26.980;2023-11-19T07:22:54;16.20;;;11.03;;
12798;SDS011;19250;42.646;26.980;2023-11-19T07:25:22;16.20;;;10.23;;
12798;SDS011;19250;42.646;26.980;2023-11-19T07:27:51;12.97;;;8.90;;
12798;SDS011;19250;42.646;26.980;2023-11-19T07:30:19;11.37;;;8.47;;
12798;SDS011;19250;42.646;26.980;2023-11-19T07:32:46;12.73;;;9.23;;
12798;SDS011;19250;42.646;26.980;2023-11-19T07:35:14;12.27;;;8.90;;
12798;SDS011;19250;42.646;26.980;2023-11-19T07:37:43;12.73;;;8.80;;
12798;SDS011;19250;42.646;26.980;2023-11-19T07:40:11;13.03;;;9.20;;
12798;SDS011;19250;42.646;26.980;2023-11-19T07:42:41;12.80;;;8.80;;
12798;SDS011;19250;42.646;26.980;2023-11-19T07:45:09;14.63;;;10.30;;
12798;SDS011;19250;42.646;26.980;2023-11-19T07:47:37;14.30;;;11.03;;
12798;SDS011;19250;42.646;26.980;2023-11-19T07:50:05;19.27;;;13.20;;
12798;SDS011;19250;42.646;26.980;2023-11-19T07:52:33;12.60;;;8.53;;
12798;SDS011;19250;42.646;26.980;2023-11-19T07:55:02;12.10;;;8.50;;
12798;SDS011;19250;42.646;26.980;2023-11-19T07:57:30;10.60;;;8.37;;
12798;SDS011;19250;42.646;26.980;2023-11-19T07:59:58;10.97;;;8.57;;
12798;SDS011;19250;42.646;26.980;2023-11-19T08:02:26;13.80;;;9.27;;
12798;SDS011;19250;42.646;26.980;2023-11-19T08:04:54;12.13;;;8.93;;
12798;SDS011;19250;42.646;26.980;2023-11-19T08:07:21;13.50;;;9.70;;
12798;SDS011;19250;42.646;26.980;2023-11-19T08:09:49;31.73;;;19.73;;
12798;SDS011;19250;42.646;26.980;2023-11-19T08:12:17;24.30;;;15.43;;
12798;SDS011;19250;42.646;26.980;2023-11-19T08:14:45;19.90;;;13.27;;
12798;SDS011;19250;42.646;26.980;2023-11-19T08:17:12;19.87;;;14.87;;
12798;SDS011;19250;42.646;26.980;2023-11-19T08:19:40;16.67;;;11.53;;
12798;SDS011;19250;42.646;26.980;2023-11-19T08:22:07;23.27;;;17.27;;
12798;SDS011;19250;42.646;26.980;2023-11-19T08:24:35;15.63;;;11.60;;
12798;SDS011;19250;42.646;26.980;2023-11-19T08:27:02;15.73;;;12.53;;
12798;SDS011;19250;42.646;26.980;2023-11-19T08:29:31;20.10;;;15.80;;
12798;SDS011;19250;42.646;26.980;2023-11-19T08:32:00;11.80;;;9.07;;
12798;SDS011;19250;42.646;26.980;2023-11-19T08:34:28;10.60;;;8.50;;
12798;SDS011;19250;42.646;26.980;2023-11-19T08:36:56;19.33;;;13.70;;
12798;SDS011;19250;42.646;26.980;2023-11-19T08:39:23;12.00;;;9.57;;
12798;SDS011;19250;42.646;26.980;2023-11-19T08:41:50;13.63;;;10.30;;
12798;SDS011;19250;42.646;26.980;2023-11-19T08:44:18;9.83;;;8.30;;
12798;SDS011;19250;42.646;26.980;2023-11-19T08:46:48;10.53;;;8.20;;
12798;SDS011;19250;42.646;26.980;2023-11-19T08:49:16;10.03;;;8.03;;
12798;SDS011;19250;42.646;26.980;2023-11-19T08:51:43;17.00;;;11.90;;
12798;SDS011;19250;42.646;26.980;2023-11-19T08:54:11;11.97;;;8.27;;
12798;SDS011;19250;42.646;26.980;2023-11-19T08:56:39;9.97;;;8.13;;
12798;SDS011;19250;42.646;26.980;2023-11-19T08:59:06;10.83;;;8.27;;
12798;SDS011;19250;42.646;26.980;2023-11-19T09:01:34;10.53;;;8.13;;
12798;SDS011;19250;42.646;26.980;2023-11-19T09:04:03;9.43;;;7.13;;
12798;SDS011;19250;42.646;26.980;2023-11-19T09:06:31;13.20;;;8.87;;
12798;SDS011;19250;42.646;26.980;2023-11-19T09:08:59;10.37;;;7.47;;
12798;SDS011;19250;42.646;26.980;2023-11-19T09:11:28;10.70;;;7.50;;
12798;SDS011;19250;42.646;26.980;2023-11-19T09:13:55;10.87;;;7.97;;
12798;SDS011;19250;42.646;26.980;2023-11-19T09:16:22;12.20;;;8.40;;
12798;SDS011;19250;42.646;26.980;2023-11-19T09:18:50;15.53;;;11.20;;
12798;SDS011;19250;42.646;26.980;2023-11-19T09:21:19;14.27;;;10.67;;
12798;SDS011;19250;42.646;26.980;2023-11-19T09:23:48;16.53;;;10.60;;
12798;SDS011;19250;42.646;26.980;2023-11-19T09:26:16;15.43;;;11.03;;
12798;SDS011;19250;42.646;26.980;2023-11-19T09:28:43;13.40;;;7.83;;
12798;SDS011;19250;42.646;26.980;2023-11-19T09:31:13;14.00;;;10.60;;
12798;SDS011;19250;42.646;26.980;2023-11-19T09:33:41;10.47;;;8.40;;
12798;SDS011;19250;42.646;26.980;2023-11-19T09:36:09;9.33;;;7.27;;
12798;SDS011;19250;42.646;26.980;2023-11-19T09:38:40;9.53;;;8.17;;
12798;SDS011;19250;42.646;26.980;2023-11-19T09:41:09;7.23;;;6.40;;
12798;SDS011;19250;42.646;26.980;2023-11-19T09:43:38;11.67;;;8.93;;
12798;SDS011;19250;42.646;26.980;2023-11-19T09:46:06;10.50;;;8.80;;
12798;SDS011;19250;42.646;26.980;2023-11-19T09:48:37;9.37;;;7.20;;
12798;SDS011;19250;42.646;26.980;2023-11-19T09:51:05;7.23;;;6.53;;
12798;SDS011;19250;42.646;26.980;2023-11-19T09:53:33;13.47;;;11.57;;
12798;SDS011;19250;42.646;26.980;2023-11-19T09:56:04;17.13;;;13.90;;
12798;SDS011;19250;42.646;26.980;2023-11-19T09:58:33;23.00;;;17.87;;
12798;SDS011;19250;42.646;26.980;2023-11-19T10:01:01;12.27;;;9.00;;
12798;SDS011;19250;42.646;26.980;2023-11-19T10:03:32;10.37;;;7.77;;
12798;SDS011;19250;42.646;26.980;2023-11-19T10:06:03;11.70;;;9.20;;
12798;SDS011;19250;42.646;26.980;2023-11-19T10:08:32;11.70;;;9.90;;
12798;SDS011;19250;42.646;26.980;2023-11-19T10:11:00;11.30;;;8.43;;
12798;SDS011;19250;42.646;26.980;2023-11-19T10:13:28;26.13;;;18.37;;
12798;SDS011;19250;42.646;26.980;2023-11-19T10:15:56;11.33;;;10.23;;
12798;SDS011;19250;42.646;26.980;2023-11-19T10:18:24;10.67;;;8.73;;
12798;SDS011;19250;42.646;26.980;2023-11-19T10:20:52;10.93;;;9.70;;
12798;SDS011;19250;42.646;26.980;2023-11-19T10:23:20;12.50;;;10.10;;
12798;SDS011;19250;42.646;26.980;2023-11-19T10:25:48;14.10;;;11.57;;
12798;SDS011;19250;42.646;26.980;2023-11-19T10:28:19;13.20;;;11.37;;
12798;SDS011;19250;42.646;26.980;2023-11-19T10:30:48;11.07;;;9.83;;
12798;SDS011;19250;42.646;26.980;2023-11-19T10:33:16;7.83;;;6.23;;
12798;SDS011;19250;42.646;26.980;2023-11-19T10:35:51;6.67;;;6.07;;
12798;SDS011;19250;42.646;26.980;2023-11-19T10:38:20;7.03;;;5.60;;
12798;SDS011;19250;42.646;26.980;2023-11-19T10:40:47;6.17;;;5.37;;
12798;SDS011;19250;42.646;26.980;2023-11-19T10:43:16;5.53;;;5.00;;
12798;SDS011;19250;42.646;26.980;2023-11-19T10:45:43;5.80;;;5.20;;
12798;SDS011;19250;42.646;26.980;2023-11-19T10:48:12;6.03;;;5.00;;
12798;SDS011;19250;42.646;26.980;2023-11-19T10:50:40;5.93;;;4.87;;
12798;SDS011;19250;42.646;26.980;2023-11-19T10:53:09;8.47;;;6.37;;
12798;SDS011;19250;42.646;26.980;2023-11-19T10:55:38;6.30;;;5.33;;
12798;SDS011;19250;42.646;26.980;2023-11-19T10:58:06;6.97;;;4.87;;
12798;SDS011;19250;42.646;26.980;2023-11-19T11:00:37;6.80;;;5.00;;
12798;SDS011;19250;42.646;26.980;2023-11-19T11:03:09;10.17;;;7.17;;
12798;SDS011;19250;42.646;26.980;2023-11-19T11:05:43;4.83;;;4.33;;
12798;SDS011;19250;42.646;26.980;2023-11-19T11:08:14;5.50;;;5.00;;
12798;SDS011;19250;42.646;26.980;2023-11-19T11:10:43;6.07;;;4.23;;
12798;SDS011;19250;42.646;26.980;2023-11-19T11:13:11;4.73;;;4.23;;
12798;SDS011;19250;42.646;26.980;2023-11-19T11:15:41;5.03;;;4.27;;
12798;SDS011;19250;42.646;26.980;2023-11-19T11:18:09;6.17;;;4.87;;
12798;SDS011;19250;42.646;26.980;2023-11-19T11:20:36;6.90;;;5.73;;
12798;SDS011;19250;42.646;26.980;2023-11-19T11:26:23;6.67;;;5.27;;
12798;SDS011;19250;42.646;26.980;2023-11-19T11:29:16;6.03;;;5.17;;
12798;SDS011;19250;42.646;26.980;2023-11-19T11:31:52;7.27;;;6.17;;
12798;SDS011;19250;42.646;26.980;2023-11-19T11:34:34;7.30;;;5.87;;
12798;SDS011;19250;42.646;26.980;2023-11-19T11:37:21;4.63;;;4.13;;
12798;SDS011;19250;42.646;26.980;2023-11-19T11:39:57;5.77;;;4.53;;
12798;SDS011;19250;42.646;26.980;2023-11-19T11:42:36;6.17;;;5.30;;
12798;SDS011;19250;42.646;26.980;2023-11-19T11:45:05;6.30;;;5.40;;
12798;SDS011;19250;42.646;26.980;2023-11-19T11:48:04;7.67;;;5.73;;
12798;SDS011;19250;42.646;26.980;2023-11-19T11:50:36;9.70;;;6.83;;
12798;SDS011;19250;42.646;26.980;2023-11-19T11:53:16;4.70;;;4.07;;
12798;SDS011;19250;42.646;26.980;2023-11-19T11:55:54;5.33;;;4.60;;
12798;SDS011;19250;42.646;26.980;2023-11-19T11:58:30;3.60;;;3.30;;
12798;SDS011;19250;42.646;26.980;2023-11-19T12:00:59;4.10;;;3.63;;
12798;SDS011;19250;42.646;26.980;2023-11-19T12:03:31;4.23;;;3.83;;
12798;SDS011;19250;42.646;26.980;2023-11-19T12:05:59;5.27;;;4.30;;
12798;SDS011;19250;42.646;26.980;2023-11-19T12:08:27;5.17;;;3.67;;
12798;SDS011;19250;42.646;26.980;2023-11-19T12:10:57;4.00;;;3.47;;
12798;SDS011;19250;42.646;26.980;2023-11-19T12:13:42;4.27;;;3.80;;
12798;SDS011;19250;42.646;26.980;2023-11-19T12:16:14;4.27;;;3.87;;
12798;SDS011;19250;42.646;26.980;2023-11-19T12:18:41;3.53;;;3.10;;
12798;SDS011;19250;42.646;26.980;2023-11-19T12:21:09;4.37;;;3.97;;
12798;SDS011;19250;42.646;26.980;2023-11-19T12:23:44;4.73;;;3.97;;
12798;SDS011;19250;42.646;26.980;2023-11-19T12:29:03;5.23;;;3.60;;
12798;SDS011;19250;42.646;26.980;2023-11-19T12:31:31;8.43;;;4.30;;
12798;SDS011;19250;42.646;26.980;2023-11-19T12:34:05;5.17;;;4.33;;
12798;SDS011;19250;42.646;26.980;2023-11-19T12:36:37;3.90;;;3.60;;
12798;SDS011;19250;42.646;26.980;2023-11-19T12:39:06;4.37;;;3.97;;
12798;SDS011;19250;42.646;26.980;2023-11-19T12:41:48;4.93;;;4.53;;
12798;SDS011;19250;42.646;26.980;2023-11-19T12:44:21;4.87;;;3.97;;
12798;SDS011;19250;42.646;26.980;2023-11-19T12:47:01;8.10;;;6.23;;
12798;SDS011;19250;42.646;26.980;2023-11-19T12:49:31;7.90;;;6.93;;
12798;SDS011;19250;42.646;26.980;2023-11-19T12:51:58;7.00;;;5.57;;
12798;SDS011;19250;42.646;26.980;2023-11-19T12:54:33;6.97;;;6.37;;
12798;SDS011;19250;42.646;26.980;2023-11-19T12:57:01;8.30;;;6.37;;
12798;SDS011;19250;42.646;26.980;2023-11-19T12:59:31;7.00;;;6.27;;
12798;SDS011;19250;42.646;26.980;2023-11-19T13:01:59;8.47;;;7.13;;
12798;SDS011;19250;42.646;26.980;2023-11-19T13:04:28;6.27;;;5.70;;
12798;SDS011;19250;42.646;26.980;2023-11-19T13:06:57;5.00;;;4.37;;
12798;SDS011;19250;42.646;26.980;2023-11-19T13:09:25;9.63;;;6.37;;
12798;SDS011;19250;42.646;26.980;2023-11-19T13:11:53;6.13;;;5.40;;
12798;SDS011;19250;42.646;26.980;2023-11-19T13:14:21;5.73;;;5.07;;
12798;SDS011;19250;42.646;26.980;2023-11-19T13:16:51;11.40;;;6.60;;
12798;SDS011;19250;42.646;26.980;2023-11-19T13:19:19;7.30;;;6.50;;
12798;SDS011;19250;42.646;26.980;2023-11-19T13:21:48;10.23;;;7.63;;
12798;SDS011;19250;42.646;26.980;2023-11-19T13:24:16;11.87;;;9.00;;
12798;SDS011;19250;42.646;26.980;2023-11-19T13:26:43;9.77;;;7.17;;
12798;SDS011;19250;42.646;26.980;2023-11-19T13:29:11;8.27;;;5.90;;
12798;SDS011;19250;42.646;26.980;2023-11-19T13:31:38;9.23;;;6.40;;
12798;SDS011;19250;42.646;26.980;2023-11-19T13:34:07;12.68;;;10.32;;
12798;SDS011;19250;42.646;26.980;2023-11-19T13:36:35;14.67;;;8.00;;
12798;SDS011;19250;42.646;26.980;2023-11-19T13:39:02;12.83;;;7.43;;
12798;SDS011;19250;42.646;26.980;2023-11-19T13:41:30;9.43;;;7.17;;
12798;SDS011;19250;42.646;26.980;2023-11-19T13:43:58;7.87;;;6.77;;
12798;SDS011;19250;42.646;26.980;2023-11-19T13:46:25;10.27;;;6.97;;
12798;SDS011;19250;42.646;26.980;2023-11-19T13:48:53;7.27;;;5.90;;
12798;SDS011;19250;42.646;26.980;2023-11-19T13:51:21;10.97;;;7.47;;
12798;SDS011;19250;42.646;26.980;2023-11-19T13:53:49;7.90;;;6.70;;
12798;SDS011;19250;42.646;26.980;2023-11-19T13:56:16;7.93;;;6.13;;
12798;SDS011;19250;42.646;26.980;2023-11-19T13:58:44;9.83;;;6.43;;
12798;SDS011;19250;42.646;26.980;2023-11-19T14:01:11;10.73;;;7.10;;
12798;SDS011;19250;42.646;26.980;2023-11-19T14:03:40;8.93;;;7.00;;
12798;SDS011;19250;42.646;26.980;2023-11-19T14:06:07;6.77;;;5.67;;
12798;SDS011;19250;42.646;26.980;2023-11-19T14:08:36;12.57;;;11.00;;
12798;SDS011;19250;42.646;26.980;2023-11-19T14:11:04;18.73;;;14.70;;
12798;SDS011;19250;42.646;26.980;2023-11-19T14:13:32;30.97;;;20.73;;
12798;SDS011;19250;42.646;26.980;2023-11-19T14:16:00;27.27;;;20.30;;
12798;SDS011;19250;42.646;26.980;2023-11-19T14:18:27;16.90;;;13.47;;
12798;SDS011;19250;42.646;26.980;2023-11-19T14:20:54;27.33;;;22.27;;
12798;SDS011;19250;42.646;26.980;2023-11-19T14:23:22;28.23;;;24.00;;
12798;SDS011;19250;42.646;26.980;2023-11-19T14:25:52;38.33;;;32.17;;
12798;SDS011;19250;42.646;26.980;2023-11-19T14:28:20;42.73;;;32.53;;
12798;SDS011;19250;42.646;26.980;2023-11-19T14:30:47;38.13;;;30.63;;
12798;SDS011;19250;42.646;26.980;2023-11-19T14:33:19;29.53;;;23.90;;
12798;SDS011;19250;42.646;26.980;2023-11-19T14:35:46;26.13;;;21.20;;
12798;SDS011;19250;42.646;26.980;2023-11-19T14:38:14;21.53;;;16.33;;
12798;SDS011;19250;42.646;26.980;2023-11-19T14:40:42;14.43;;;11.40;;